Time;durP1;ratioP1;P1;durP2;ratioP2;P2;SDS_P1;SDS_P2;PMS_P1;PMS_P2;Temp;Humidity;BMP_temperature;BMP_pressure;BME280_temperature;BME280_humidity;BME280_pressure;Samples;Min_cycle;Max_cycle;Signal;HPM_P1;HPM_P2
2022/08/31 00:05:55;;;;;;;14.37;13.23;;;;;;;23.53;89.06;99248.56;5071447;28;20215;-73
2022/08/31 00:08:22;;;;;;;15.77;12.20;;;;;;;23.52;90.11;99246.09;5068950;28;20196;-73
2022/08/31 00:10:49;;;;;;;14.87;12.97;;;;;;;23.40;90.19;99231.44;5071434;28;20687;-73
2022/08/31 00:13:16;;;;;;;14.17;13.17;;;;;;;23.51;90.32;99249.66;5071186;28;20203;-73
2022/08/31 00:15:43;;;;;;;13.50;12.37;;;;;;;23.46;91.08;99246.59;5071231;28;20582;-73
2022/08/31 00:18:12;;;;;;;14.30;12.97;;;;;;;23.43;91.39;99252.09;5070800;28;20203;-73
2022/08/31 00:20:40;;;;;;;14.40;12.87;;;;;;;23.42;91.44;99242.63;5071650;28;20216;-73
2022/08/31 00:23:09;;;;;;;14.33;12.97;;;;;;;23.41;91.18;99248.78;5072156;28;20738;-72
2022/08/31 00:25:37;;;;;;;13.60;12.57;;;;;;;23.42;91.77;99247.84;5070534;28;20204;-73
2022/08/31 00:28:04;;;;;;;14.77;13.07;;;;;;;23.41;91.65;99246.19;5068932;28;20287;-72
2022/08/31 00:30:33;;;;;;;13.77;12.37;;;;;;;23.41;91.41;99243.56;5069921;28;20200;-73
2022/08/31 00:33:00;;;;;;;14.73;13.50;;;;;;;23.23;91.96;99213.72;5071300;28;20434;-73
2022/08/31 00:35:30;;;;;;;13.07;11.97;;;;;;;23.36;91.98;99243.09;5070681;28;20659;-73
2022/08/31 00:37:57;;;;;;;13.93;12.90;;;;;;;23.32;93.09;99239.91;5070679;28;20287;-73
2022/08/31 00:40:25;;;;;;;12.47;11.37;;;;;;;23.30;93.07;99243.59;5070190;28;20722;-73
2022/08/31 00:42:52;;;;;;;13.07;11.87;;;;;;;23.30;93.45;99236.59;5070614;28;20196;-73
2022/08/31 00:45:20;;;;;;;14.37;13.27;;;;;;;23.28;92.94;99248.97;5073184;28;20206;-72
2022/08/31 00:47:46;;;;;;;13.47;12.27;;;;;;;23.24;93.59;99239.72;5069337;28;20207;-73
2022/08/31 00:50:15;;;;;;;19.90;12.77;;;;;;;23.27;93.10;99246.47;5069861;28;20607;-72
2022/08/31 00:52:48;;;;;;;12.20;11.30;;;;;;;23.25;93.29;99243.19;5069135;28;20200;-73
2022/08/31 00:55:19;;;;;;;13.40;12.00;;;;;;;23.22;92.90;99238.22;5068836;28;20224;-73
2022/08/31 00:57:54;;;;;;;11.67;10.77;;;;;;;23.21;93.27;99247.00;5072375;28;20200;-72
2022/08/31 01:00:23;;;;;;;13.47;12.13;;;;;;;23.19;93.40;99243.69;5070317;28;20195;-73
2022/08/31 01:02:51;;;;;;;13.77;12.77;;;;;;;23.20;93.30;99247.97;5070818;28;20196;-73
2022/08/31 01:05:18;;;;;;;13.47;12.23;;;;;;;23.07;93.31;99234.28;5070670;28;20199;-73
2022/08/31 01:07:51;;;;;;;12.43;11.37;;;;;;;23.11;93.30;99238.28;5067872;28;20206;-73
2022/08/31 01:10:21;;;;;;;11.80;10.80;;;;;;;23.07;93.23;99239.50;5072151;28;20202;-73
2022/08/31 01:12:52;;;;;;;19.80;11.47;;;;;;;23.04;92.96;99235.34;5066166;28;20192;-73
2022/08/31 01:15:20;;;;;;;13.93;11.27;;;;;;;23.04;93.24;99224.09;5068756;28;20584;-73
2022/08/31 01:17:49;;;;;;;13.80;12.70;;;;;;;23.06;92.94;99230.00;5068566;28;20211;-73
2022/08/31 01:20:24;;;;;;;13.10;11.87;;;;;;;23.05;92.50;99228.34;5068318;28;20196;-73
2022/08/31 01:23:06;;;;;;;13.07;11.80;;;;;;;23.01;90.85;99231.19;5068229;28;20218;-73
2022/08/31 01:25:35;;;;;;;13.10;11.97;;;;;;;22.99;90.11;99227.06;5069614;28;20703;-72
2022/08/31 01:28:04;;;;;;;13.67;12.37;;;;;;;22.92;89.46;99231.97;5069427;28;20200;-72
2022/08/31 01:30:31;;;;;;;14.03;12.93;;;;;;;22.83;89.56;99222.28;5070247;28;20200;-71
2022/08/31 01:32:58;;;;;;;14.50;13.10;;;;;;;22.74;89.26;99207.38;5070932;28;20251;-72
2022/08/31 01:35:25;;;;;;;13.53;12.37;;;;;;;22.92;88.73;99231.97;5070115;28;20192;-72
2022/08/31 01:37:53;;;;;;;14.37;12.90;;;;;;;22.90;89.00;99228.69;5070528;28;20204;-72
2022/08/31 01:40:25;;;;;;;13.13;12.13;;;;;;;22.75;88.81;99219.47;5070293;28;20200;-73
2022/08/31 01:42:51;;;;;;;13.50;12.33;;;;;;;22.77;89.06;99232.44;5070096;28;20202;-72
2022/08/31 01:45:18;;;;;;;13.50;12.17;;;;;;;22.72;89.17;99235.41;5071518;28;20575;-72
2022/08/31 01:47:45;;;;;;;13.73;12.50;;;;;;;22.66;89.38;99235.09;5070059;28;20211;-71
2022/08/31 01:50:12;;;;;;;14.70;13.20;;;;;;;22.63;89.78;99235.31;5073963;28;20207;-73
2022/08/31 01:52:39;;;;;;;14.53;13.30;;;;;;;22.61;90.21;99232.00;5073713;28;20195;-73
2022/08/31 01:55:08;;;;;;;14.87;13.47;;;;;;;22.57;90.56;99235.81;5073523;28;20316;-72
2022/08/31 01:57:36;;;;;;;14.13;12.83;;;;;;;;;;5074191;28;20204;-72
2022/08/31 02:00:06;;;;;;;13.03;12.03;;;;;;;22.31;91.69;99211.81;5074801;28;20210;-72
2022/08/31 02:02:33;;;;;;;13.70;12.50;;;;;;;22.31;92.57;99224.88;5073557;28;20212;-72
2022/08/31 02:05:00;;;;;;;14.37;12.60;;;;;;;22.27;93.18;99226.06;5073456;28;20200;-72
2022/08/31 02:07:27;;;;;;;18.63;12.80;;;;;;;22.25;93.05;99222.75;5073654;28;20211;-73
2022/08/31 02:09:54;;;;;;;14.27;12.97;;;;;;;22.22;93.54;99225.63;5073537;28;20208;-73
2022/08/31 02:12:21;;;;;;;14.13;12.70;;;;;;;22.18;93.68;99217.22;5073543;28;20192;-73
2022/08/31 02:14:49;;;;;;;15.37;13.77;;;;;;;22.20;93.96;99212.69;5073570;28;20200;-73
2022/08/31 02:17:16;;;;;;;13.73;12.40;;;;;;;22.21;93.83;99214.34;5070865;28;20206;-72
2022/08/31 02:19:43;;;;;;;13.80;12.57;;;;;;;22.24;93.34;99218.47;5073539;28;20200;-73
2022/08/31 02:22:10;;;;;;;14.87;13.40;;;;;;;22.24;93.68;99218.47;5074268;28;20219;-72
2022/08/31 02:24:37;;;;;;;15.67;13.40;;;;;;;22.21;93.56;99213.50;5071390;28;20202;-72
2022/08/31 02:27:04;;;;;;;14.33;13.10;;;;;;;22.24;93.74;99208.03;5073094;28;20212;-72
2022/08/31 02:29:31;;;;;;;14.00;12.90;;;;;;;22.21;94.46;99218.72;5073407;28;20196;-72
2022/08/31 02:32:00;;;;;;;16.70;14.10;;;;;;;22.19;94.19;99212.81;5075888;28;20583;-73
2022/08/31 02:34:26;;;;;;;14.90;13.30;;;;;;;22.12;94.92;99206.44;5070726;28;20203;-72
2022/08/31 02:36:53;;;;;;;14.60;13.07;;;;;;;22.09;95.13;99210.13;5073224;28;20730;-73
2022/08/31 02:39:20;;;;;;;15.37;13.87;;;;;;;22.06;95.64;99207.75;5072941;28;20207;-73
2022/08/31 02:41:47;;;;;;;13.70;12.77;;;;;;;21.97;96.14;99204.09;5072877;28;20218;-73
2022/08/31 02:44:14;;;;;;;16.03;13.53;;;;;;;22.00;96.70;99210.03;5072996;28;20200;-72
2022/08/31 02:46:41;;;;;;;15.87;14.47;;;;;;;21.98;96.46;99208.34;5073170;28;20723;-72
2022/08/31 02:49:09;;;;;;;15.27;13.83;;;;;;;21.98;96.30;99213.56;5072455;28;20195;-72
2022/08/31 02:51:39;;;;;;;15.23;13.57;;;;;;;21.98;96.30;99207.53;5071333;28;20207;-73
2022/08/31 02:54:07;;;;;;;15.13;13.87;;;;;;;21.96;96.84;99215.50;5072603;28;20691;-73
2022/08/31 02:56:34;;;;;;;16.97;15.37;;;;;;;21.96;96.58;99220.72;5069899;28;20200;-72
2022/08/31 02:59:00;;;;;;;15.33;13.83;;;;;;;22.01;96.20;99211.66;5070346;28;20231;-73
2022/08/31 03:01:27;;;;;;;15.87;14.47;;;;;;;22.00;95.44;99199.59;5071165;28;20216;-72
2022/08/31 03:03:54;;;;;;;14.23;12.83;;;;;;;22.02;95.64;99201.13;5071909;28;20196;-73
2022/08/31 03:06:23;;;;;;;15.63;14.07;;;;;;;22.05;95.15;99206.09;5071231;28;20195;-72
2022/08/31 03:08:50;;;;;;;14.67;13.47;;;;;;;22.07;94.98;99201.56;5071292;28;20200;-73
2022/08/31 03:11:18;;;;;;;15.83;14.60;;;;;;;22.09;95.10;99209.28;5072132;28;20196;-72
2022/08/31 03:13:45;;;;;;;14.33;12.90;;;;;;;22.13;94.33;99206.31;5071988;28;20196;-73
2022/08/31 03:16:14;;;;;;;14.00;12.90;;;;;;;22.16;94.42;99198.22;5070213;28;20204;-73
2022/08/31 03:18:41;;;;;;;20.87;13.70;;;;;;;22.21;94.00;99203.06;5071895;28;20219;-73
2022/08/31 03:21:08;;;;;;;16.63;13.60;;;;;;;22.24;93.81;99202.81;5071384;28;20211;-73
2022/08/31 03:23:36;;;;;;;14.67;13.50;;;;;;;22.27;93.55;99197.34;5073568;28;20207;-72
2022/08/31 03:26:04;;;;;;;15.13;13.63;;;;;;;22.32;92.78;99203.03;5072146;28;20561;-73
2022/08/31 03:28:31;;;;;;;14.07;12.97;;;;;;;22.34;92.24;99206.34;5071775;28;20207;-73
2022/08/31 03:30:58;;;;;;;15.07;13.43;;;;;;;22.31;92.10;99204.81;5071989;28;20204;-73
2022/08/31 03:33:25;;;;;;;16.43;13.20;;;;;;;22.31;92.26;99209.22;5072385;28;20204;-73
2022/08/31 03:35:52;;;;;;;14.17;13.03;;;;;;;22.27;92.33;99203.41;5071807;28;20204;-73
2022/08/31 03:38:19;;;;;;;14.53;13.27;;;;;;;22.20;92.59;99185.72;5071814;28;20196;-73
2022/08/31 03:40:49;;;;;;;13.67;12.30;;;;;;;22.30;92.62;99202.31;5071667;28;20235;-73
2022/08/31 03:43:17;;;;;;;16.53;13.57;;;;;;;22.28;93.34;99205.06;5071718;28;20248;-73
2022/08/31 03:45:44;;;;;;;15.07;13.37;;;;;;;22.27;93.37;99207.78;5073007;28;20203;-72
2022/08/31 03:48:11;;;;;;;14.93;13.33;;;;;;;22.12;93.41;99190.75;5071777;28;20200;-73
2022/08/31 03:50:38;;;;;;;15.80;14.30;;;;;;;22.20;93.57;99207.47;5071608;28;20199;-72
2022/08/31 03:53:06;;;;;;;14.77;13.23;;;;;;;22.20;93.59;99206.63;5071795;28;20192;-73
2022/08/31 03:55:35;;;;;;;15.33;13.80;;;;;;;22.18;93.66;99206.75;5071779;28;20585;-73
2022/08/31 03:58:03;;;;;;;15.67;13.27;;;;;;;22.15;94.10;99200.97;5071649;28;21011;-73
2022/08/31 04:00:31;;;;;;;14.83;13.40;;;;;;;22.11;94.60;99208.19;5071152;28;20207;-73
2022/08/31 04:02:59;;;;;;;14.87;13.57;;;;;;;22.12;94.60;99214.25;5071018;28;20223;-73
2022/08/31 04:05:26;;;;;;;15.80;14.20;;;;;;;22.10;94.97;99209.16;5071589;28;20204;-72
2022/08/31 04:07:53;;;;;;;15.77;14.13;;;;;;;22.07;95.45;99222.44;5071579;28;20200;-73
2022/08/31 04:10:21;;;;;;;15.73;13.80;;;;;;;22.10;95.75;99216.19;5071361;28;20553;-73
2022/08/31 04:12:48;;;;;;;16.77;14.00;;;;;;;22.08;96.84;99218.06;5070896;28;20192;-72
2022/08/31 04:15:18;;;;;;;14.40;13.10;;;;;;;22.00;97.84;99212.63;5070225;28;20207;-72
2022/08/31 04:17:45;;;;;;;14.97;13.50;;;;;;;21.95;98.10;99211.22;5071657;28;20294;-73
2022/08/31 04:20:13;;;;;;;15.03;13.57;;;;;;;21.95;98.89;99208.59;5067826;28;20663;-73
2022/08/31 04:22:40;;;;;;;14.73;13.40;;;;;;;21.98;98.75;99212.75;5070881;28;20216;-73
2022/08/31 04:25:09;;;;;;;13.83;12.73;;;;;;;22.02;99.01;99213.34;5070939;28;20204;-73
2022/08/31 04:27:36;;;;;;;14.53;12.80;;;;;;;22.06;98.95;99214.75;5071455;28;20240;-73
2022/08/31 04:30:04;;;;;;;14.40;13.30;;;;;;;22.05;99.12;99213.09;5070563;28;20206;-72
2022/08/31 04:32:33;;;;;;;14.70;13.50;;;;;;;22.14;99.73;99222.78;5071131;28;20202;-73
2022/08/31 04:35:00;;;;;;;16.10;14.27;;;;;;;22.21;99.61;99229.19;5070742;28;20286;-72
2022/08/31 04:37:28;;;;;;;14.80;12.07;;;;;;;22.29;99.20;99226.78;5070928;28;20211;-73
2022/08/31 04:39:57;;;;;;;14.60;13.20;;;;;;;22.37;99.69;99224.38;5070982;28;20290;-73
2022/08/31 04:42:24;;;;;;;14.53;13.10;;;;;;;22.47;99.16;99225.28;5070643;28;20216;-73
2022/08/31 04:44:51;;;;;;;15.00;13.50;;;;;;;22.54;98.11;99226.44;5071015;28;20204;-73
2022/08/31 04:47:19;;;;;;;12.97;12.03;;;;;;;22.46;98.09;99210.56;5068366;28;20199;-73
2022/08/31 04:49:48;;;;;;;14.80;13.43;;;;;;;22.62;97.02;99229.25;5067732;28;20242;-73
2022/08/31 04:52:15;;;;;;;14.93;13.43;;;;;;;22.61;96.99;99218.94;5069874;28;20261;-72
2022/08/31 04:54:41;;;;;;;14.27;12.87;;;;;;;22.72;96.90;99218.91;5070346;28;20226;-73
2022/08/31 04:57:09;;;;;;;14.17;13.13;;;;;;;22.71;96.79;99207.63;5070745;28;20660;-72
2022/08/31 04:59:36;;;;;;;13.67;12.57;;;;;;;22.92;97.60;99221.53;5070524;28;20202;-72
2022/08/31 05:02:03;;;;;;;14.37;12.50;;;;;;;23.02;96.68;99217.19;5068616;28;20223;-73
2022/08/31 05:04:30;;;;;;;14.50;12.97;;;;;;;23.16;96.09;99223.03;5070236;28;20694;-72
2022/08/31 05:06:59;;;;;;;12.93;12.03;;;;;;;23.28;95.32;99217.59;5070486;28;20626;-72
2022/08/31 05:09:26;;;;;;;14.00;12.23;;;;;;;23.42;94.39;99209.44;5071712;28;20198;-72
2022/08/31 05:11:54;;;;;;;13.10;11.97;;;;;;;23.45;93.24;99192.63;5071326;28;20204;-73
2022/08/31 05:14:22;;;;;;;13.00;11.70;;;;;;;23.70;91.84;99218.34;5069232;28;20203;-73
2022/08/31 05:16:49;;;;;;;13.47;12.03;;;;;;;23.76;90.28;99206.50;5069551;28;20204;-72
2022/08/31 05:19:16;;;;;;;13.50;12.23;;;;;;;23.95;88.79;99214.38;5070115;28;20583;-73
2022/08/31 05:21:43;;;;;;;13.87;12.20;;;;;;;24.11;88.67;99206.00;5070211;28;20683;-73
2022/08/31 05:24:14;;;;;;;13.50;12.07;;;;;;;24.25;87.70;99211.72;5074432;28;20200;-73
2022/08/31 05:26:44;;;;;;;12.10;11.23;;;;;;;24.47;87.26;99213.22;5074160;28;20223;-73
2022/08/31 05:29:13;;;;;;;12.47;11.40;;;;;;;24.62;87.24;99211.81;5074685;28;20313;-73
2022/08/31 05:31:41;;;;;;;11.70;10.80;;;;;;;24.74;84.74;99210.72;5073892;28;20200;-73
2022/08/31 05:34:11;;;;;;;12.67;11.33;;;;;;;24.78;83.06;99198.16;5073934;28;20204;-73
2022/08/31 05:36:38;;;;;;;13.87;11.70;;;;;;;24.94;83.26;99211.56;5073987;28;20197;-73
2022/08/31 05:39:08;;;;;;;12.07;11.07;;;;;;;25.02;83.66;99204.63;5076171;28;21585;-73
2022/08/31 05:41:37;;;;;;;12.33;11.20;;;;;;;24.93;82.30;99205.47;5072411;28;20203;-73
2022/08/31 05:44:05;;;;;;;12.17;10.93;;;;;;;24.81;82.09;99193.47;5068935;28;20207;-74
2022/08/31 05:46:32;;;;;;;13.23;10.77;;;;;;;24.88;81.94;99202.44;5073554;28;20287;-73
2022/08/31 05:48:58;;;;;;;11.97;10.87;;;;;;;24.86;82.58;99204.38;5073542;28;20192;-73
2022/08/31 05:51:25;;;;;;;11.90;11.03;;;;;;;24.79;83.47;99200.63;5073600;28;20207;-74
2022/08/31 05:53:52;;;;;;;10.77;9.93;;;;;;;24.74;83.23;99200.25;5073154;28;20248;-73
2022/08/31 05:56:22;;;;;;;11.40;10.50;;;;;;;24.67;84.27;99193.06;5071855;28;20196;-74
2022/08/31 05:58:51;;;;;;;11.13;10.53;;;;;;;24.68;83.71;99200.81;5073355;28;20203;-73
2022/08/31 06:01:20;;;;;;;10.80;9.83;;;;;;;24.71;83.77;99200.53;5070695;28;22208;-72
2022/08/31 06:03:47;;;;;;;10.43;9.57;;;;;;;24.79;83.34;99198.00;5072265;28;20279;-73
2022/08/31 06:06:15;;;;;;;12.33;11.20;;;;;;;24.95;83.32;99208.78;5072257;28;20208;-71
2022/08/31 06:08:43;;;;;;;8.93;8.33;;;;;;;25.26;82.55;99203.31;5072547;28;20196;-75
2022/08/31 06:11:16;;;;;;;11.03;9.97;;;;;;;25.55;79.51;99209.31;5071591;28;20204;-75
2022/08/31 06:13:43;;;;;;;10.77;9.80;;;;;;;25.91;79.66;99202.34;5072541;28;20626;-74
2022/08/31 06:16:12;;;;;;;10.77;9.90;;;;;;;26.27;75.83;99213.72;5071950;28;20208;-76
2022/08/31 06:18:49;;;;;;;116.90;17.73;;;;;;;26.56;74.01;99209.03;5072985;28;20633;-74
2022/08/31 06:21:19;;;;;;;14.73;10.20;;;;;;;26.84;74.10;99202.72;5072923;28;20227;-74
2022/08/31 06:23:46;;;;;;;9.70;8.80;;;;;;;27.11;73.31;99205.19;5071668;28;20277;-75
2022/08/31 06:26:15;;;;;;;11.53;10.33;;;;;;;27.38;71.10;99206.81;5072560;28;20579;-75
2022/08/31 06:28:43;;;;;;;10.17;9.17;;;;;;;27.58;71.06;99207.44;5072791;28;20211;-75
2022/08/31 06:31:18;;;;;;;9.33;8.67;;;;;;;27.75;72.06;99214.41;5070461;28;20231;-73
2022/08/31 06:33:46;;;;;;;9.67;8.97;;;;;;;27.97;69.17;99213.00;5071350;28;20236;-74
2022/08/31 06:36:15;;;;;;;9.60;8.90;;;;;;;28.04;69.29;99188.47;5073234;28;20619;-74
2022/08/31 06:38:42;;;;;;;9.77;8.70;;;;;;;28.46;68.32;99216.56;5072532;28;20671;-74
2022/08/31 06:41:14;;;;;;;9.07;8.47;;;;;;;28.67;68.19;99222.19;5071920;28;20215;-74
2022/08/31 06:43:41;;;;;;;8.60;8.10;;;;;;;28.89;67.21;99216.22;5069354;28;20216;-73
2022/08/31 06:46:07;;;;;;;9.10;8.37;;;;;;;29.08;65.53;99221.13;5071910;28;20223;-74
2022/08/31 06:48:36;;;;;;;9.05;8.55;;;;;;;29.14;63.69;99215.19;5071626;28;20204;-73
2022/08/31 06:51:03;;;;;;;8.15;7.43;;;;;;;29.40;63.09;99224.75;5071983;28;20669;-73
2022/08/31 06:53:30;;;;;;;10.23;8.73;;;;;;;29.47;62.12;99217.75;5071705;28;20200;-73
2022/08/31 06:55:57;;;;;;;7.47;6.75;;;;;;;29.66;60.57;99220.03;5071916;28;20235;-74
2022/08/31 06:58:24;;;;;;;11.10;7.68;;;;;;;29.76;60.84;99215.31;5071424;28;20207;-74
2022/08/31 07:00:52;;;;;;;8.88;8.02;;;;;;;29.91;59.06;99218.94;5069829;28;20672;-72
2022/08/31 07:03:31;;;;;;;8.68;8.07;;;;;;;29.96;57.64;99216.56;5070998;28;20255;-73
2022/08/31 07:06:04;;;;;;;8.90;8.23;;;;;;;30.16;56.43;99214.31;5070420;28;20200;-72
2022/08/31 07:08:31;;;;;;;7.30;6.80;;;;;;;30.31;56.26;99225.75;5071167;28;20204;-73
2022/08/31 07:10:58;;;;;;;7.97;7.20;;;;;;;30.35;56.24;99220.94;5070654;28;20243;-73
2022/08/31 07:13:25;;;;;;;8.05;7.30;;;;;;;30.43;57.89;99218.28;5070017;28;20207;-72
2022/08/31 07:15:52;;;;;;;7.18;6.88;;;;;;;30.48;54.91;99211.47;5070589;28;20671;-72
2022/08/31 07:18:19;;;;;;;7.53;7.13;;;;;;;30.59;54.42;99208.41;5071273;28;20274;-72
2022/08/31 07:20:46;;;;;;;7.82;7.32;;;;;;;30.63;55.28;99214.16;5069059;28;20201;-72
2022/08/31 07:23:14;;;;;;;8.02;7.35;;;;;;;30.77;55.74;99213.34;5070873;28;20698;-72
2022/08/31 07:25:41;;;;;;;7.47;6.82;;;;;;;30.94;53.42;99214.88;5070274;28;20688;-71
2022/08/31 07:28:09;;;;;;;18.58;7.97;;;;;;;31.01;54.50;99207.88;5070322;28;20200;-71
2022/08/31 07:30:38;;;;;;;7.82;7.22;;;;;;;31.13;55.96;99209.06;5068423;28;20249;-71
2022/08/31 07:33:05;;;;;;;8.45;7.65;;;;;;;31.28;54.67;99208.25;5069715;28;20637;-71
2022/08/31 07:35:32;;;;;;;8.98;7.25;;;;;;;31.28;55.00;99214.34;5070705;28;20631;-71
2022/08/31 07:43:29;;;;;;;7.18;6.57;;;;;;;31.56;54.31;99212.75;5068489;28;20342;-73
2022/08/31 07:45:56;;;;;;;7.70;7.28;;;;;;;31.67;55.44;99192.88;5069863;28;20591;-73
2022/08/31 07:48:22;;;;;;;7.10;6.60;;;;;;;31.82;54.30;99212.25;5069460;28;20203;-73
2022/08/31 07:50:49;;;;;;;7.18;6.88;;;;;;;31.93;51.39;99201.13;5067345;28;20232;-73
2022/08/31 07:53:16;;;;;;;7.15;6.05;;;;;;;31.96;54.79;99205.22;5069522;28;20202;-70
2022/08/31 07:55:44;;;;;;;7.18;6.57;;;;;;;32.07;52.28;99212.75;5069109;28;20223;-73
2022/08/31 07:58:14;;;;;;;6.63;6.28;;;;;;;32.15;52.55;99208.13;5067941;28;20212;-70
2022/08/31 08:00:42;;;;;;;6.85;6.25;;;;;;;32.23;49.30;99193.94;5070509;28;20203;-73
2022/08/31 08:03:11;;;;;;;6.43;5.97;;;;;;;32.40;49.69;99197.16;5070781;28;20224;-72
2022/08/31 08:05:40;;;;;;;6.47;6.07;;;;;;;32.41;52.24;99206.78;5063996;28;20196;-72
2022/08/31 08:08:10;;;;;;;7.22;6.82;;;;;;;32.40;48.35;99191.84;5068426;28;20207;-72
2022/08/31 08:10:40;;;;;;;6.13;5.82;;;;;;;32.37;50.92;99192.22;5066445;28;20690;-72
2022/08/31 08:13:07;;;;;;;6.25;5.95;;;;;;;32.41;50.55;99180.22;5067218;28;20732;-74
2022/08/31 08:15:36;;;;;;;7.72;6.65;;;;;;;32.63;49.83;99190.66;5070211;28;20284;-72
2022/08/31 08:18:04;;;;;;;6.82;6.43;;;;;;;32.73;50.74;99191.13;5070916;28;20698;-72
2022/08/31 08:20:31;;;;;;;6.45;5.93;;;;;;;32.72;47.07;99188.69;5068821;28;20257;-73
2022/08/31 08:22:57;;;;;;;6.80;6.25;;;;;;;32.85;50.19;99180.81;5074566;28;20224;-71
2022/08/31 08:25:24;;;;;;;6.32;6.03;;;;;;;32.87;48.36;99181.44;5070237;28;20243;-71
2022/08/31 08:27:54;;;;;;;6.90;6.53;;;;;;;32.99;49.37;99169.25;5068608;28;20222;-72
2022/08/31 08:30:21;;;;;;;9.20;6.05;;;;;;;33.19;46.98;99180.84;5069178;28;20638;-71
2022/08/31 08:32:49;;;;;;;7.88;6.10;;;;;;;33.35;46.48;99168.22;5065285;28;20204;-68
2022/08/31 08:35:16;;;;;;;6.00;5.53;;;;;;;33.36;47.51;99172.53;5070014;28;20327;-68
2022/08/31 08:37:46;;;;;;;7.28;6.88;;;;;;;33.54;46.30;99176.28;5066324;28;20199;-69
2022/08/31 08:40:27;;;;;;;6.65;6.25;;;;;;;33.70;51.30;99167.19;5069398;28;20651;-73
2022/08/31 08:42:54;;;;;;;6.38;5.90;;;;;;;33.90;46.59;99172.53;5067056;28;20219;-73
2022/08/31 08:45:22;;;;;;;6.72;6.07;;;;;;;33.96;43.74;99172.56;5069620;28;20668;-74
2022/08/31 08:47:53;;;;;;;6.50;6.20;;;;;;;33.82;44.68;99170.91;5066717;28;20206;-72
2022/08/31 08:50:21;;;;;;;6.82;6.18;;;;;;;33.74;44.96;99166.59;5069252;28;20286;-73
2022/08/31 08:52:48;;;;;;;6.25;5.85;;;;;;;33.74;44.95;99169.25;5064665;28;20208;-73
2022/08/31 08:55:18;;;;;;;7.25;6.55;;;;;;;33.83;46.18;99166.41;5069197;28;20728;-73
2022/08/31 08:57:48;;;;;;;6.70;6.15;;;;;;;33.77;44.68;99162.69;5068931;28;20207;-72
2022/08/31 09:00:17;;;;;;;6.85;6.10;;;;;;;33.84;44.09;99162.72;5069528;28;20284;-71
2022/08/31 09:02:57;;;;;;;7.05;6.57;;;;;;;33.71;44.00;99161.66;5068585;28;20196;-71
2022/08/31 09:05:48;;;;;;;6.47;5.97;;;;;;;33.63;43.07;99155.72;5067716;28;20282;-69
2022/08/31 09:08:33;;;;;;;6.63;6.22;;;;;;;33.61;44.25;99145.28;5069000;28;20203;-72
2022/08/31 09:11:16;;;;;;;7.03;6.60;;;;;;;33.82;44.95;99154.13;5069840;28;20211;-71
2022/08/31 09:13:54;;;;;;;7.43;6.78;;;;;;;33.94;47.48;99148.03;5068697;28;20706;-71
2022/08/31 09:16:39;;;;;;;7.97;5.93;;;;;;;34.21;44.88;99154.22;5067304;28;20206;-72
2022/08/31 09:19:12;;;;;;;6.80;6.40;;;;;;;34.38;44.16;99149.34;5064364;28;20283;-71
2022/08/31 09:21:45;;;;;;;6.70;6.25;;;;;;;34.51;45.28;99146.66;5067254;28;20675;-71
2022/08/31 09:24:18;;;;;;;6.57;6.18;;;;;;;34.58;43.55;99142.97;5069173;28;20216;-72
2022/08/31 09:26:59;;;;;;;6.00;5.65;;;;;;;34.81;42.36;99145.22;5066966;28;20204;-72
2022/08/31 09:29:28;;;;;;;6.22;5.80;;;;;;;34.66;41.10;99139.31;5068734;28;20258;-71
2022/08/31 09:32:04;;;;;;;6.60;6.15;;;;;;;34.13;40.94;99141.94;5068390;28;20203;-71
2022/08/31 09:34:36;;;;;;;6.22;5.75;;;;;;;33.93;40.68;99134.94;5068340;28;20204;-70
2022/08/31 09:37:16;;;;;;;6.63;6.03;;;;;;;33.81;41.58;99131.22;5068625;28;20243;-68
2022/08/31 09:39:46;;;;;;;6.60;5.95;;;;;;;33.83;43.22;99129.19;5068870;28;20257;-69
2022/08/31 09:42:27;;;;;;;7.28;6.78;;;;;;;33.80;44.31;99125.06;5069714;28;20275;-70
2022/08/31 09:44:57;;;;;;;9.07;6.25;;;;;;;33.98;43.62;99127.97;5069891;28;20748;-69
2022/08/31 09:47:49;;;;;;;7.43;6.80;;;;;;;33.89;43.71;99121.22;5069854;28;20622;-69
2022/08/31 09:50:27;;;;;;;5.93;5.60;;;;;;;33.95;42.32;99112.44;5068169;28;20222;-72
2022/08/31 09:56:04;;;;;;;6.07;5.75;;;;;;;34.21;40.53;99109.81;5069603;28;20288;-71
2022/08/31 09:58:32;;;;;;;6.03;5.63;;;;;;;34.33;41.23;99119.84;5069488;28;20226;-71
2022/08/31 10:01:12;;;;;;;6.70;6.03;;;;;;;34.40;40.39;99116.16;5069218;28;20235;-73
2022/08/31 10:03:43;;;;;;;6.32;5.78;;;;;;;34.40;39.52;99104.69;5068565;28;20234;-73
2022/08/31 10:06:36;;;;;;;7.30;6.57;;;;;;;34.47;39.67;99110.81;5060352;28;20204;-71
2022/08/31 10:09:12;;;;;;;6.10;5.70;;;;;;;34.54;40.17;99101.00;5067676;28;20680;-73
2022/08/31 10:11:42;;;;;;;8.75;6.20;;;;;;;34.70;40.02;99100.59;5076665;28;20199;-73
2022/08/31 10:14:20;;;;;;;5.40;5.18;;;;;;;34.92;39.27;99093.97;5072535;28;20204;-73
2022/08/31 10:16:52;;;;;;;5.60;5.30;;;;;;;35.15;40.17;99083.69;5075098;28;20199;-71
2022/08/31 10:19:31;;;;;;;5.38;5.10;;;;;;;35.07;39.36;99086.53;5075472;28;20204;-73
2022/08/31 10:22:02;;;;;;;6.18;5.72;;;;;;;34.91;39.91;99075.50;5075064;28;20260;-72
2022/08/31 10:24:37;;;;;;;5.97;5.65;;;;;;;35.01;37.97;99068.72;5073881;28;20216;-72
2022/08/31 10:27:15;;;;;;;6.18;5.78;;;;;;;34.97;38.96;99064.00;5073147;28;20203;-73
2022/08/31 10:29:54;;;;;;;5.90;5.60;;;;;;;34.76;38.96;99065.13;5073055;28;20258;-72
2022/08/31 10:32:34;;;;;;;6.57;6.13;;;;;;;34.47;38.45;99066.41;5074241;28;20199;-72
2022/08/31 10:35:09;;;;;;;7.28;5.55;;;;;;;34.47;40.46;99062.91;5074558;28;20559;-73
2022/08/31 10:37:49;;;;;;;6.38;5.80;;;;;;;34.71;40.56;99064.91;5074852;28;20200;-72
2022/08/31 10:40:23;;;;;;;6.95;6.18;;;;;;;34.86;38.70;99062.84;5074832;28;20200;-72
2022/08/31 10:42:58;;;;;;;6.63;6.25;;;;;;;34.87;37.72;99064.47;5074708;28;20214;-73
2022/08/31 10:45:28;;;;;;;6.43;5.93;;;;;;;34.96;36.94;99062.41;5074186;28;20222;-72
2022/08/31 10:47:58;;;;;;;6.35;5.78;;;;;;;34.81;38.94;99049.31;5073855;28;20200;-72
2022/08/31 10:50:34;;;;;;;6.20;5.80;;;;;;;34.96;39.40;99055.19;5070651;28;20687;-72
2022/08/31 10:53:14;;;;;;;5.50;5.00;;;;;;;35.00;37.49;99064.41;5073953;28;20580;-72
2022/08/31 10:55:54;;;;;;;6.07;5.57;;;;;;;35.19;37.66;99063.53;5073196;28;20314;-73
2022/08/31 10:58:30;;;;;;;4.80;4.43;;;;;;;35.27;36.90;99055.31;5073504;28;20278;-68
2022/08/31 11:01:06;;;;;;;7.72;5.28;;;;;;;35.09;36.78;99063.16;5073464;28;20682;-71
2022/08/31 11:03:57;;;;;;;5.75;5.25;;;;;;;34.87;37.60;99060.97;5070834;28;20295;-71
2022/08/31 11:06:33;;;;;;;7.20;5.63;;;;;;;34.65;38.72;99065.75;5073246;28;20203;-69
2022/08/31 11:09:06;;;;;;;6.05;5.43;;;;;;;34.58;38.81;99060.41;5071961;28;20588;-70
2022/08/31 11:11:40;;;;;;;5.57;5.32;;;;;;;34.36;37.66;99059.03;5074198;28;20200;-72
2022/08/31 11:14:35;;;;;;;6.40;5.82;;;;;;;34.26;37.56;99059.44;5074690;28;20924;-71
2022/08/31 11:17:17;;;;;;;6.18;5.57;;;;;;;34.17;37.62;99060.69;5073755;28;20203;-71
2022/08/31 11:20:10;;;;;;;7.30;5.50;;;;;;;34.23;40.28;99051.88;5073300;28;20200;-72
2022/08/31 11:22:55;;;;;;;5.35;4.95;;;;;;;34.52;38.71;99061.25;5063653;28;20218;-71
2022/08/31 11:25:57;;;;;;;5.95;5.22;;;;;;;34.61;37.13;99053.88;5071573;28;20267;-71
2022/08/31 11:28:32;;;;;;;5.35;5.05;;;;;;;34.52;38.64;99055.09;5067449;28;20291;-70
2022/08/31 11:31:01;;;;;;;8.82;4.97;;;;;;;34.35;37.33;99054.72;5071156;28;20638;-70
2022/08/31 11:33:30;;;;;;;4.97;4.53;;;;;;;34.29;38.63;99060.88;5071153;28;20196;-73
2022/08/31 11:36:04;;;;;;;9.45;5.38;;;;;;;34.45;37.77;99054.28;5071507;28;20241;-72
2022/08/31 11:38:51;;;;;;;8.07;5.28;;;;;;;34.75;38.09;99055.50;5071697;28;20196;-73
2022/08/31 11:41:40;;;;;;;6.32;4.60;;;;;;;34.92;37.13;99051.34;5071523;28;20208;-72
2022/08/31 11:44:10;;;;;;;7.72;5.25;;;;;;;34.89;39.34;99057.09;5071556;28;20573;-72
2022/08/31 11:46:44;;;;;;;6.47;6.00;;;;;;;34.69;38.10;99059.00;5070226;28;20207;-72
2022/08/31 11:49:37;;;;;;;7.85;6.03;;;;;;;34.41;39.06;99055.75;5070679;28;20199;-70
2022/08/31 11:52:09;;;;;;;6.28;4.82;;;;;;;34.49;38.08;99058.19;5071500;28;20242;-73